createdAt,value
2022-11-23T00:04:41.318Z,5.97
2022-11-23T00:09:43.627Z,6.28
2022-11-23T00:14:45.818Z,5.97
2022-11-23T00:19:47.957Z,5.65
2022-11-23T00:24:50.355Z,5.95
2022-11-23T00:29:52.509Z,6.05
2022-11-23T00:34:55.198Z,6.55
2022-11-23T00:39:58.361Z,6.95
2022-11-23T00:45:00.520Z,6.47
2022-11-23T00:50:03.009Z,7.35
2022-11-23T00:55:05.763Z,6.78
2022-11-23T01:00:08.685Z,6.30
2022-11-23T01:05:10.889Z,6.40
2022-11-23T01:10:13.205Z,6.00
2022-11-23T01:15:15.885Z,7.03
2022-11-23T01:20:18.156Z,7.45
2022-11-23T01:25:20.310Z,8.40
2022-11-23T01:35:26.806Z,8.70
2022-11-23T01:50:47.193Z,10.63
2022-11-23T01:55:50.876Z,9.63
2022-11-23T02:00:53.155Z,10.38
2022-11-23T02:06:01.714Z,10.00
2022-11-23T02:11:04.034Z,9.45
2022-11-23T02:16:06.409Z,9.13
2022-11-23T02:21:08.618Z,9.07
2022-11-23T02:26:17.970Z,8.65
2022-11-23T02:31:20.182Z,8.73
2022-11-23T02:41:43.710Z,8.48
2022-11-23T02:46:46.290Z,8.98
2022-11-23T02:51:50.409Z,9.90
2022-11-23T02:56:52.691Z,9.82
2022-11-23T03:01:54.882Z,10.48
2022-11-23T03:06:57.229Z,9.85
2022-11-23T03:11:59.678Z,10.68
2022-11-23T03:22:11.414Z,10.10
2022-11-23T03:27:13.930Z,10.65
2022-11-23T03:32:17.163Z,10.23
2022-11-23T03:37:22.875Z,10.40
2022-11-23T03:42:25.159Z,10.45
2022-11-23T03:47:27.373Z,10.23
2022-11-23T03:52:29.533Z,10.40
2022-11-23T03:57:31.853Z,10.77
2022-11-23T04:02:36.473Z,10.10
2022-11-23T04:07:46.117Z,10.55
2022-11-23T04:12:52.799Z,9.98
2022-11-23T04:17:55.695Z,9.88
2022-11-23T04:22:58.936Z,9.90
2022-11-23T04:28:03.316Z,9.93
2022-11-23T04:33:05.627Z,10.38
2022-11-23T04:38:08.287Z,9.63
2022-11-23T04:43:12.160Z,9.38
2022-11-23T04:48:15.245Z,9.38
2022-11-23T04:53:18.535Z,8.27
2022-11-23T04:58:23.374Z,8.63
2022-11-23T05:03:31.469Z,8.90
2022-11-23T05:08:35.736Z,8.38
2022-11-23T05:13:57.797Z,7.97
2022-11-23T05:19:00.258Z,8.40
2022-11-23T05:24:02.635Z,7.82
2022-11-23T05:29:06.037Z,8.90
2022-11-23T05:34:08.250Z,8.23
2022-11-23T05:39:20.084Z,7.53
2022-11-23T05:44:26.334Z,6.72
2022-11-23T05:54:31.582Z,7.97
2022-11-23T05:59:40.637Z,7.68
2022-11-23T06:04:46.017Z,7.00
2022-11-23T06:09:54.062Z,7.03
2022-11-23T06:14:56.622Z,6.32
2022-11-23T06:20:00.809Z,7.60
2022-11-23T06:25:03.261Z,6.90
2022-11-23T06:30:26.411Z,6.43
2022-11-23T06:35:31.031Z,6.70
2022-11-23T06:40:34.316Z,5.90
2022-11-23T06:45:37.806Z,6.50
2022-11-23T06:50:43.995Z,6.97
2022-11-23T06:55:46.641Z,7.15
2022-11-23T07:00:52.010Z,6.78
2022-11-23T07:05:54.949Z,6.70
2022-11-23T07:11:02.643Z,6.18
2022-11-23T07:16:05.961Z,6.65
2022-11-23T07:21:08.461Z,6.72
2022-11-23T07:26:11.442Z,6.70
2022-11-23T07:31:16.199Z,6.85
2022-11-23T07:36:18.442Z,6.65
2022-11-23T07:41:21.660Z,6.20
2022-11-23T07:46:40.970Z,6.15
2022-11-23T07:51:43.095Z,6.78
2022-11-23T07:56:45.371Z,6.40
2022-11-23T08:01:51.184Z,7.15
2022-11-23T08:06:55.406Z,8.43
2022-11-23T08:11:57.608Z,6.60
2022-11-23T08:16:59.762Z,7.53
2022-11-23T08:22:02.173Z,7.45
2022-11-23T08:27:04.760Z,15.35
2022-11-23T08:32:06.906Z,9.35
2022-11-23T08:37:09.027Z,7.18
2022-11-23T08:42:11.255Z,7.18
2022-11-23T08:47:13.469Z,7.05
2022-11-23T08:52:15.594Z,6.32
2022-11-23T08:57:17.847Z,7.10
2022-11-23T09:02:19.992Z,7.15
2022-11-23T09:07:22.189Z,6.55
2022-11-23T09:12:24.372Z,6.80
2022-11-23T09:17:26.613Z,6.85
2022-11-23T09:22:28.872Z,6.78
2022-11-23T09:27:31.010Z,6.40
2022-11-23T09:32:33.272Z,6.80
2022-11-23T09:37:35.448Z,7.50
2022-11-23T09:53:06.062Z,7.38
2022-11-23T09:58:14.951Z,6.00
2022-11-23T10:03:18.661Z,7.32
2022-11-23T10:08:47.575Z,6.97
2022-11-23T10:14:13.049Z,6.47
2022-11-23T10:24:48.048Z,6.05
2022-11-23T10:29:52.647Z,6.47
2022-11-23T10:45:31.415Z,8.88
2022-11-23T10:50:37.976Z,6.65
2022-11-23T10:55:53.015Z,6.85
2022-11-23T11:01:01.185Z,6.65
2022-11-23T11:06:09.152Z,9.05
2022-11-23T11:11:39.686Z,6.97
2022-11-23T11:16:49.861Z,6.72
2022-11-23T11:21:52.050Z,6.82
2022-11-23T11:27:00.382Z,6.90
2022-11-23T11:32:11.671Z,6.95
2022-11-23T15:36:38.979Z,5.20
2022-11-23T15:41:41.550Z,5.30
2022-11-23T15:46:43.920Z,5.13
2022-11-23T15:51:46.576Z,5.30
2022-11-23T15:56:51.590Z,4.80
2022-11-23T16:01:54.645Z,5.13
2022-11-23T16:06:57.339Z,5.10
2022-11-23T16:11:59.616Z,5.28
2022-11-23T16:17:24.976Z,5.00
2022-11-23T16:22:37.985Z,5.20
2022-11-23T16:27:40.767Z,5.20
2022-11-23T16:32:42.966Z,5.47
2022-11-23T16:37:46.222Z,5.55
2022-11-23T16:42:53.284Z,5.70
2022-11-23T16:53:14.585Z,5.33
2022-11-23T16:58:17.354Z,5.97
2022-11-23T17:03:21.571Z,5.45
2022-11-23T17:08:24.282Z,6.13
2022-11-23T17:13:29.739Z,5.78
2022-11-23T17:18:33.009Z,5.60
2022-11-23T17:23:35.694Z,5.32
2022-11-23T17:28:37.948Z,4.70
2022-11-23T17:33:40.436Z,5.40
2022-11-23T17:38:47.115Z,5.65
2022-11-23T17:43:49.570Z,5.90
2022-11-23T17:48:57.389Z,5.90
2022-11-23T17:53:59.962Z,5.57
2022-11-23T17:59:04.356Z,5.68
2022-11-23T18:04:06.945Z,5.95
2022-11-23T18:09:09.586Z,6.60
2022-11-23T18:14:11.841Z,5.80
2022-11-23T18:19:15.099Z,6.43
2022-11-23T18:24:17.710Z,5.43
2022-11-23T18:29:20.144Z,5.78
2022-11-23T18:34:22.412Z,6.68
2022-11-23T18:39:24.706Z,8.18
2022-11-23T18:44:26.897Z,6.85
2022-11-23T18:49:29.111Z,6.53
2022-11-23T18:54:31.398Z,6.63
2022-11-23T19:00:03.968Z,6.20
2022-11-23T19:04:55.985Z,6.28
2022-11-23T19:09:58.191Z,6.45
2022-11-23T19:15:00.463Z,6.18
2022-11-23T19:20:04.017Z,9.77
2022-11-23T19:25:06.986Z,7.25
2022-11-23T19:30:10.090Z,7.73
2022-11-23T19:35:12.471Z,9.27
2022-11-23T19:40:15.140Z,7.15
2022-11-23T19:45:17.454Z,6.97
2022-11-23T19:50:19.666Z,6.40
2022-11-23T19:55:21.975Z,6.32
2022-11-23T20:00:24.303Z,7.40
2022-11-23T20:05:27.385Z,6.05
2022-11-23T20:10:29.660Z,6.53
2022-11-23T20:15:32.916Z,8.10
2022-11-23T20:20:39.657Z,10.55
2022-11-23T20:25:42.615Z,7.38
2022-11-23T20:30:44.884Z,6.57
2022-11-23T20:35:48.355Z,6.90
2022-11-23T20:40:50.688Z,6.10
2022-11-23T20:45:52.921Z,6.25
2022-11-23T20:50:55.143Z,6.93
2022-11-23T20:56:13.720Z,6.70
2022-11-23T21:01:18.172Z,6.87
2022-11-23T21:06:21.425Z,7.38
2022-11-23T21:11:47.557Z,7.93
2022-11-23T21:16:55.238Z,15.80
2022-11-23T21:21:58.881Z,9.70
2022-11-23T21:27:01.967Z,9.55
2022-11-23T21:32:04.521Z,9.05
2022-11-23T21:37:06.762Z,9.18
2022-11-23T21:42:09.280Z,8.50
2022-11-23T21:47:11.815Z,8.15
2022-11-23T21:52:14.136Z,7.95
2022-11-23T21:57:16.383Z,7.90
2022-11-23T22:02:19.099Z,8.43
2022-11-23T22:07:21.534Z,7.70
2022-11-23T22:12:23.962Z,8.88
2022-11-23T22:17:26.305Z,7.22
2022-11-23T22:22:28.518Z,8.25
2022-11-23T22:27:30.742Z,8.02
2022-11-23T22:32:32.947Z,7.50
2022-11-23T22:37:35.150Z,7.35
2022-11-23T22:42:37.494Z,6.80
2022-11-23T22:47:39.710Z,7.40
2022-11-23T22:52:41.964Z,6.85
2022-11-23T22:57:44.202Z,7.97
2022-11-23T23:02:47.137Z,7.00
2022-11-23T23:07:49.370Z,7.10
2022-11-23T23:17:54.165Z,8.00
2022-11-23T23:22:56.380Z,8.00
2022-11-23T23:27:58.733Z,7.87
2022-11-23T23:33:01.322Z,7.68
2022-11-23T23:38:03.553Z,7.22
2022-11-23T23:43:05.813Z,7.50
2022-11-23T23:48:08.269Z,8.00
2022-11-23T23:53:10.517Z,7.30
2022-11-23T23:58:12.854Z,7.30
